createdAt,value
2023-05-09T00:00:03.141Z,97.07
2023-05-09T00:01:03.079Z,96.77
2023-05-09T00:02:02.712Z,96.36
2023-05-09T00:03:03.140Z,95.75
2023-05-09T00:04:03.227Z,95.35
2023-05-09T00:05:02.838Z,95.04
2023-05-09T00:06:03.455Z,95.35
2023-05-09T00:07:03.195Z,95.86
2023-05-09T00:08:03.202Z,96.15
2023-05-09T00:09:02.425Z,95.75
2023-05-09T00:10:01.984Z,95.14
2023-05-09T00:11:02.195Z,95.35
2023-05-09T00:12:02.208Z,95.65
2023-05-09T00:13:02.124Z,94.79
2023-05-09T00:14:02.916Z,94.64
2023-05-09T00:15:02.987Z,94.19
2023-05-09T00:16:02.441Z,94.19
2023-05-09T00:17:02.427Z,95.00
2023-05-09T00:18:02.708Z,95.20
2023-05-09T00:19:02.950Z,96.82
2023-05-09T00:20:02.979Z,96.26
2023-05-09T00:21:03.177Z,95.86
2023-05-09T00:22:03.190Z,96.26
2023-05-09T00:23:03.001Z,95.65
2023-05-09T00:24:02.796Z,96.51
2023-05-09T00:25:02.837Z,96.81
2023-05-09T00:26:02.879Z,96.81
2023-05-09T00:27:02.327Z,96.61
2023-05-09T00:28:02.341Z,96.30
2023-05-09T00:29:03.413Z,96.51
2023-05-09T00:30:03.160Z,96.91
2023-05-09T00:31:03.270Z,96.61
2023-05-09T00:32:03.306Z,96.51
2023-05-09T00:33:03.378Z,95.59
2023-05-09T00:34:03.137Z,95.19
2023-05-09T00:35:03.065Z,94.64
2023-05-09T00:36:03.042Z,94.03
2023-05-09T00:37:03.049Z,93.73
2023-05-09T00:38:02.826Z,93.42
2023-05-09T00:39:02.595Z,93.32
2023-05-09T00:40:02.083Z,93.12
2023-05-09T00:41:02.031Z,93.32
2023-05-09T00:42:02.021Z,93.12
2023-05-09T00:43:01.980Z,93.22
2023-05-09T00:44:02.717Z,93.02
2023-05-09T00:45:02.647Z,93.52
2023-05-09T00:46:02.456Z,94.64
2023-05-09T00:47:02.674Z,94.34
2023-05-09T00:48:02.501Z,95.65
2023-05-09T00:49:03.366Z,94.84
2023-05-09T00:50:03.207Z,94.84
2023-05-09T00:51:03.318Z,94.43
2023-05-09T00:52:03.112Z,94.34
2023-05-09T00:53:03.159Z,95.65
2023-05-09T00:54:02.948Z,96.30
2023-05-09T00:55:02.737Z,96.10
2023-05-09T00:56:02.754Z,96.30
2023-05-09T00:57:02.781Z,96.61
2023-05-09T00:58:02.640Z,96.61
2023-05-09T00:59:02.779Z,96.61
2023-05-09T01:00:02.804Z,96.30
2023-05-09T01:01:02.957Z,95.65
2023-05-09T01:02:03.261Z,95.14
2023-05-09T01:03:02.890Z,95.55
2023-05-09T01:04:02.693Z,95.65
2023-05-09T01:05:02.743Z,96.00
2023-05-09T01:06:02.774Z,96.71
2023-05-09T01:07:02.666Z,97.22
2023-05-09T01:08:02.645Z,96.75
2023-05-09T01:09:01.638Z,97.16
2023-05-09T01:10:01.762Z,96.96
2023-05-09T01:11:02.012Z,97.36
2023-05-09T01:12:01.860Z,97.32
2023-05-09T01:13:01.943Z,96.41
2023-05-09T01:14:01.742Z,95.59
2023-05-09T01:15:01.803Z,95.59
2023-05-09T01:16:02.346Z,95.90
2023-05-09T01:17:01.924Z,96.10
2023-05-09T01:18:01.789Z,96.10
2023-05-09T01:19:01.785Z,96.10
2023-05-09T01:20:01.828Z,96.30
2023-05-09T01:21:01.981Z,96.91
2023-05-09T01:22:01.896Z,97.11
2023-05-09T01:23:01.951Z,97.22
2023-05-09T01:24:02.649Z,97.42
2023-05-09T01:25:02.775Z,96.61
2023-05-09T01:26:02.610Z,96.10
2023-05-09T01:27:02.184Z,96.20
2023-05-09T01:28:02.305Z,95.59
2023-05-09T01:29:02.343Z,95.59
2023-05-09T01:30:02.314Z,95.70
2023-05-09T01:31:02.805Z,95.04
2023-05-09T01:32:02.741Z,94.43
2023-05-09T01:33:02.910Z,94.64
2023-05-09T01:34:01.932Z,95.25
2023-05-09T01:35:01.946Z,95.79
2023-05-09T01:36:02.007Z,96.51
2023-05-09T01:37:02.129Z,96.41
2023-05-09T01:38:01.762Z,96.10
2023-05-09T01:39:02.533Z,95.45
2023-05-09T01:40:02.586Z,95.14
2023-05-09T01:41:02.594Z,95.04
2023-05-09T01:42:02.422Z,95.14
2023-05-09T01:43:02.422Z,95.04
2023-05-09T01:44:02.618Z,94.84
2023-05-09T01:45:02.937Z,96.46
2023-05-09T01:46:02.593Z,96.97
2023-05-09T01:47:02.620Z,95.40
2023-05-09T01:48:02.752Z,96.15
2023-05-09T01:49:02.640Z,97.07
2023-05-09T01:50:02.867Z,96.62
2023-05-09T01:51:02.673Z,97.33
2023-05-09T01:52:02.712Z,95.40
2023-05-09T01:53:02.981Z,95.50
2023-05-09T01:54:02.136Z,95.71
2023-05-09T01:55:01.979Z,95.50
2023-05-09T01:56:02.044Z,95.00
2023-05-09T01:57:02.087Z,94.90
2023-05-09T01:58:01.961Z,95.00
2023-05-09T01:59:02.746Z,95.30
2023-05-09T02:00:02.785Z,95.50
2023-05-09T02:01:02.836Z,96.62
2023-05-09T02:02:02.959Z,97.33
2023-05-09T02:03:02.598Z,97.13
2023-05-09T02:04:01.790Z,95.36
2023-05-09T02:05:01.828Z,95.15
2023-05-09T02:06:01.940Z,94.75
2023-05-09T02:07:01.929Z,94.95
2023-05-09T02:08:02.092Z,95.00
2023-05-09T02:09:02.426Z,95.40
2023-05-09T02:10:02.515Z,95.81
2023-05-09T02:11:02.588Z,96.42
2023-05-09T02:12:02.617Z,96.72
2023-05-09T02:13:02.822Z,96.77
2023-05-09T02:14:01.897Z,96.87
2023-05-09T02:15:01.848Z,97.27
2023-05-09T02:16:02.451Z,97.17
2023-05-09T02:17:01.886Z,97.13
2023-05-09T02:18:02.070Z,97.23
2023-05-09T02:19:02.638Z,96.92
2023-05-09T02:20:02.763Z,96.92
2023-05-09T02:21:02.788Z,95.91
2023-05-09T02:22:02.821Z,95.81
2023-05-09T02:23:02.687Z,96.01
2023-05-09T02:24:02.833Z,95.91
2023-05-09T02:25:02.840Z,95.91
2023-05-09T02:26:02.952Z,95.71
2023-05-09T02:27:02.932Z,95.61
2023-05-09T02:28:02.937Z,95.61
2023-05-09T02:29:02.512Z,95.06
2023-05-09T02:30:02.671Z,95.15
2023-05-09T02:31:02.418Z,95.06
2023-05-09T02:32:02.469Z,95.76
2023-05-09T02:33:02.449Z,96.17
2023-05-09T02:34:02.037Z,95.97
2023-05-09T02:35:02.251Z,95.86
2023-05-09T02:36:02.106Z,95.15
2023-05-09T02:37:02.221Z,95.86
2023-05-09T02:38:02.111Z,96.37
2023-05-09T02:39:02.150Z,96.57
2023-05-09T02:40:02.068Z,96.37
2023-05-09T02:41:02.125Z,95.66
2023-05-09T02:42:02.031Z,95.26
2023-05-09T02:43:02.083Z,95.56
2023-05-09T02:44:02.693Z,95.66
2023-05-09T02:45:02.707Z,95.86
2023-05-09T02:46:02.646Z,95.36
2023-05-09T02:47:02.613Z,95.76
2023-05-09T02:48:02.981Z,95.97
2023-05-09T02:49:02.978Z,95.97
2023-05-09T02:50:02.973Z,96.72
2023-05-09T02:51:03.034Z,97.23
2023-05-09T02:52:03.118Z,97.23
2023-05-09T02:53:03.132Z,96.92
2023-05-09T02:54:02.768Z,96.07
2023-05-09T02:55:02.721Z,95.76
2023-05-09T02:56:02.725Z,95.66
2023-05-09T02:57:02.446Z,95.46
2023-05-09T02:58:13.545Z,95.56
2023-05-09T02:59:02.394Z,95.06
2023-05-09T03:00:02.462Z,94.60
2023-05-09T03:01:02.303Z,94.50
2023-05-09T03:02:02.377Z,94.40
2023-05-09T03:03:02.322Z,94.30
2023-05-09T03:04:03.240Z,94.20
2023-05-09T03:05:03.706Z,95.01
2023-05-09T03:06:03.603Z,95.11
2023-05-09T03:07:03.281Z,95.01
2023-05-09T03:08:03.329Z,95.82
2023-05-09T03:09:02.820Z,95.92
2023-05-09T03:10:03.068Z,96.22
2023-05-09T03:11:02.863Z,96.02
2023-05-09T03:12:02.469Z,95.21
2023-05-09T03:13:02.703Z,95.51
2023-05-09T03:14:03.444Z,96.42
2023-05-09T03:15:03.333Z,96.42
2023-05-09T03:16:03.460Z,95.47
2023-05-09T03:17:03.298Z,95.17
2023-05-09T03:18:03.500Z,95.37
2023-05-09T03:19:02.895Z,95.57
2023-05-09T03:20:04.420Z,95.37
2023-05-09T03:21:02.549Z,95.47
2023-05-09T03:22:02.652Z,95.87
2023-05-09T03:23:02.764Z,96.28
2023-05-09T03:24:03.293Z,96.38
2023-05-09T03:25:03.075Z,96.08
2023-05-09T03:26:02.814Z,95.78
2023-05-09T03:27:03.078Z,95.27
2023-05-09T03:28:03.101Z,95.78
2023-05-09T03:29:03.337Z,95.78
2023-05-09T03:30:02.987Z,95.37
2023-05-09T03:31:03.045Z,95.67
2023-05-09T03:32:02.863Z,96.08
2023-05-09T03:33:02.900Z,95.53
2023-05-09T03:34:02.917Z,95.32
2023-05-09T03:35:02.768Z,95.93
2023-05-09T03:36:02.313Z,96.03
2023-05-09T03:37:02.910Z,96.03
2023-05-09T03:38:02.736Z,96.13
2023-05-09T03:39:03.615Z,96.03
2023-05-09T03:40:03.091Z,95.93
2023-05-09T03:41:03.004Z,95.83
2023-05-09T03:42:03.237Z,95.73
2023-05-09T03:43:03.380Z,95.83
2023-05-09T03:44:02.597Z,96.03
2023-05-09T03:45:02.788Z,96.23
2023-05-09T03:46:02.898Z,96.34
2023-05-09T03:47:03.220Z,96.34
2023-05-09T03:48:03.168Z,96.23
2023-05-09T03:49:02.926Z,96.34
2023-05-09T03:50:03.461Z,96.03
2023-05-09T03:51:02.984Z,96.03
2023-05-09T03:52:03.421Z,96.34
2023-05-09T03:53:03.515Z,96.74
2023-05-09T03:54:03.420Z,96.84
2023-05-09T03:55:02.648Z,96.74
2023-05-09T03:56:02.702Z,96.54
2023-05-09T03:57:02.735Z,96.64
2023-05-09T03:58:02.549Z,96.84
2023-05-09T03:59:02.746Z,96.54
2023-05-09T04:00:03.511Z,96.84
2023-05-09T04:01:03.204Z,96.54
2023-05-09T04:02:03.422Z,96.03
2023-05-09T04:03:03.729Z,95.89
2023-05-09T04:04:03.396Z,95.58
2023-05-09T04:05:02.778Z,95.68
2023-05-09T04:06:03.003Z,95.68
2023-05-09T04:07:02.821Z,95.78
2023-05-09T04:08:02.902Z,95.58
2023-05-09T04:09:02.913Z,94.57
2023-05-09T04:10:03.100Z,94.57
2023-05-09T04:11:03.232Z,94.87
2023-05-09T04:12:03.137Z,95.28
2023-05-09T04:13:02.837Z,95.38
2023-05-09T04:14:03.221Z,95.18
2023-05-09T04:15:03.228Z,95.48
2023-05-09T04:16:03.205Z,95.68
2023-05-09T04:17:03.531Z,95.07
2023-05-09T04:18:03.276Z,94.23
2023-05-09T04:19:03.264Z,94.17
2023-05-09T04:20:03.021Z,94.98
2023-05-09T04:21:02.961Z,95.07
2023-05-09T04:22:03.189Z,95.07
2023-05-09T04:23:03.331Z,94.12
2023-05-09T04:24:03.633Z,94.57
2023-05-09T04:25:03.367Z,95.28
2023-05-09T04:26:03.155Z,95.38
2023-05-09T04:27:03.405Z,95.89
2023-05-09T04:28:03.607Z,95.58
2023-05-09T04:29:03.098Z,95.78
2023-05-09T04:30:02.904Z,95.68
2023-05-09T04:31:02.719Z,95.34
2023-05-09T04:32:02.801Z,95.98
2023-05-09T04:33:02.931Z,95.89
2023-05-09T04:34:02.608Z,95.89
2023-05-09T04:35:03.547Z,95.98
2023-05-09T04:36:03.475Z,95.64
2023-05-09T04:37:03.349Z,95.64
2023-05-09T04:38:03.415Z,95.03
2023-05-09T04:39:02.927Z,95.34
2023-05-09T04:40:02.425Z,94.73
2023-05-09T04:41:02.641Z,94.23
2023-05-09T04:42:02.810Z,93.92
2023-05-09T04:43:02.843Z,93.98
2023-05-09T04:44:02.375Z,94.12
2023-05-09T04:45:03.211Z,93.88
2023-05-09T04:46:02.937Z,93.48
2023-05-09T04:47:02.747Z,93.27
2023-05-09T04:48:03.372Z,93.27
2023-05-09T04:49:03.179Z,93.57
2023-05-09T04:50:02.808Z,93.48
2023-05-09T04:51:02.903Z,93.37
2023-05-09T04:52:02.989Z,92.77
2023-05-09T04:53:03.076Z,92.86
2023-05-09T04:54:03.399Z,92.86
2023-05-09T04:55:03.312Z,93.48
2023-05-09T04:56:03.341Z,93.37
2023-05-09T04:57:13.836Z,92.82
2023-05-09T04:58:02.968Z,93.63
2023-05-09T04:59:03.425Z,93.63
2023-05-09T05:00:03.200Z,92.82
2023-05-09T05:01:02.873Z,92.52
2023-05-09T05:02:03.237Z,92.62
2023-05-09T05:03:03.175Z,92.62
2023-05-09T05:04:03.197Z,93.33
2023-05-09T05:05:10.938Z,92.32
2023-05-09T05:06:01.729Z,92.02
2023-05-09T05:07:01.973Z,92.02
2023-05-09T05:08:02.026Z,92.02
2023-05-09T05:09:01.838Z,92.12
2023-05-09T05:10:02.607Z,92.22
2023-05-09T05:11:02.378Z,92.18
2023-05-09T05:12:04.239Z,92.38
2023-05-09T05:13:02.594Z,92.58
2023-05-09T05:14:02.229Z,92.47
2023-05-09T05:15:02.809Z,92.68
2023-05-09T05:16:02.566Z,92.98
2023-05-09T05:17:02.650Z,92.78
2023-05-09T05:18:03.008Z,92.68
2023-05-09T05:19:03.008Z,92.47
2023-05-09T05:20:02.184Z,92.58
2023-05-09T05:21:02.535Z,92.58
2023-05-09T05:22:02.461Z,92.47
2023-05-09T05:23:02.568Z,92.38
2023-05-09T05:24:02.288Z,92.47
2023-05-09T05:25:02.762Z,92.58
2023-05-09T05:26:02.701Z,92.78
2023-05-09T05:27:02.752Z,92.38
2023-05-09T05:28:02.911Z,92.98
2023-05-09T05:29:02.432Z,92.47
2023-05-09T05:30:01.575Z,92.27
2023-05-09T05:31:01.670Z,92.18
2023-05-09T05:32:02.263Z,92.27
2023-05-09T05:33:02.152Z,92.68
2023-05-09T05:34:01.908Z,92.78
2023-05-09T05:35:02.165Z,93.18
2023-05-09T05:36:01.951Z,93.29
2023-05-09T05:37:02.025Z,93.38
2023-05-09T05:38:01.985Z,93.38
2023-05-09T05:39:02.639Z,93.59
2023-05-09T05:40:02.239Z,93.79
2023-05-09T05:41:02.418Z,93.89
2023-05-09T05:42:02.694Z,93.59
2023-05-09T05:43:02.845Z,93.49
2023-05-09T05:44:02.633Z,93.49
2023-05-09T05:45:02.286Z,93.49
2023-05-09T05:46:01.894Z,93.69
2023-05-09T05:47:02.190Z,93.79
2023-05-09T05:48:02.464Z,93.49
2023-05-09T05:49:02.236Z,93.59
2023-05-09T05:50:03.010Z,93.49
2023-05-09T05:51:02.782Z,93.29
2023-05-09T05:52:02.769Z,93.49
2023-05-09T05:53:02.930Z,93.44
2023-05-09T05:54:02.435Z,93.24
2023-05-09T05:55:02.842Z,93.14
2023-05-09T05:56:02.465Z,93.14
2023-05-09T05:57:02.671Z,93.04
2023-05-09T05:58:02.562Z,92.74
2023-05-09T05:59:02.702Z,92.23
2023-05-09T06:00:02.015Z,92.63
2023-05-09T06:01:01.860Z,93.14
2023-05-09T06:02:02.341Z,93.24
2023-05-09T06:03:02.353Z,93.54
2023-05-09T06:04:02.073Z,93.54
2023-05-09T06:05:02.237Z,93.54
2023-05-09T06:06:02.328Z,93.54
2023-05-09T06:07:02.095Z,92.79
2023-05-09T06:08:02.305Z,92.99
2023-05-09T06:09:02.032Z,92.69
2023-05-09T06:10:02.191Z,92.59
2023-05-09T06:11:02.294Z,92.39
2023-05-09T06:12:02.593Z,92.99
2023-05-09T06:13:02.379Z,92.99
2023-05-09T06:14:02.241Z,92.99
2023-05-09T06:15:02.912Z,92.85
2023-05-09T06:16:14.951Z,92.55
2023-05-09T06:17:03.380Z,92.65
2023-05-09T06:18:03.177Z,92.69
2023-05-09T06:19:03.287Z,92.69
2023-05-09T06:20:02.044Z,92.90
2023-05-09T06:21:02.188Z,92.90
2023-05-09T06:22:02.314Z,92.65
2023-05-09T06:23:02.249Z,92.45
2023-05-09T06:24:10.207Z,92.65
2023-05-09T06:25:02.747Z,92.79
2023-05-09T06:26:02.733Z,92.90
2023-05-09T06:27:02.225Z,93.10
2023-05-09T06:28:02.380Z,93.50
2023-05-09T06:29:02.609Z,93.30
2023-05-09T06:30:08.283Z,93.30
2023-05-09T06:31:02.437Z,92.99
2023-05-09T06:32:02.546Z,93.10
2023-05-09T06:33:02.914Z,93.50
2023-05-09T06:34:02.708Z,93.50
2023-05-09T06:35:02.845Z,93.19
2023-05-09T06:36:03.004Z,92.90
2023-05-09T06:37:03.190Z,92.69
2023-05-09T06:38:02.848Z,92.99
2023-05-09T06:39:03.114Z,93.05
2023-05-09T06:40:02.487Z,92.95
2023-05-09T06:41:02.588Z,92.85
2023-05-09T06:42:02.581Z,92.45
2023-05-09T06:43:02.140Z,92.45
2023-05-09T06:44:02.309Z,92.75
2023-05-09T06:45:02.532Z,92.55
2023-05-09T06:46:02.564Z,92.45
2023-05-09T06:47:02.771Z,92.45
2023-05-09T06:48:02.477Z,92.10
2023-05-09T06:49:02.761Z,91.60
2023-05-09T06:50:02.666Z,91.70
2023-05-09T06:51:03.111Z,91.60
2023-05-09T06:52:02.640Z,91.19
2023-05-09T06:53:03.243Z,91.74
2023-05-09T06:54:03.417Z,91.94
2023-05-09T06:55:02.358Z,92.35
2023-05-09T06:56:02.361Z,92.35
2023-05-09T06:57:02.059Z,92.79
2023-05-09T06:58:02.209Z,92.85
2023-05-09T06:59:02.584Z,92.55
2023-05-09T07:00:03.025Z,92.14
2023-05-09T07:01:02.649Z,92.39
2023-05-09T07:02:03.086Z,92.39
2023-05-09T07:03:02.942Z,92.79
2023-05-09T07:04:03.001Z,92.79
2023-05-09T07:05:02.327Z,92.90
2023-05-09T07:06:02.277Z,92.69
2023-05-09T07:07:02.429Z,92.79
2023-05-09T07:08:01.901Z,92.49
2023-05-09T07:09:02.426Z,92.69
2023-05-09T07:11:02.608Z,92.39
2023-05-09T07:12:02.528Z,92.90
2023-05-09T07:13:02.508Z,92.69
2023-05-09T07:14:02.157Z,92.65
2023-05-09T07:15:02.954Z,92.95
2023-05-09T07:16:02.832Z,92.45
2023-05-09T07:17:21.281Z,92.45
2023-05-09T07:18:03.097Z,92.35
2023-05-09T07:19:02.625Z,92.65
2023-05-09T07:20:02.542Z,92.65
2023-05-09T07:21:02.669Z,92.14
2023-05-09T07:22:02.511Z,92.14
2023-05-09T07:23:02.083Z,92.50
2023-05-09T07:24:02.322Z,92.20
2023-05-09T07:25:02.507Z,92.50
2023-05-09T07:26:02.187Z,92.20
2023-05-09T07:27:02.369Z,92.50
2023-05-09T07:28:02.071Z,92.06
2023-05-09T07:29:02.324Z,91.15
2023-05-09T07:30:02.924Z,91.35
2023-05-09T07:31:03.179Z,90.85
2023-05-09T07:32:02.852Z,91.25
2023-05-09T07:33:02.843Z,90.95
2023-05-09T07:34:03.181Z,91.46
2023-05-09T07:35:02.506Z,91.66
2023-05-09T07:36:02.515Z,90.50
2023-05-09T07:37:02.546Z,90.61
2023-05-09T07:38:01.973Z,90.91
2023-05-09T07:39:02.477Z,90.11
2023-05-09T07:40:02.784Z,90.30
2023-05-09T07:41:02.641Z,90.11
2023-05-09T07:42:02.525Z,90.30
2023-05-09T07:43:02.513Z,90.46
2023-05-09T07:44:02.885Z,90.56
2023-05-09T07:45:02.480Z,90.02
2023-05-09T07:46:02.603Z,88.61
2023-05-09T07:47:02.883Z,88.21
2023-05-09T07:48:02.449Z,87.81
2023-05-09T07:49:02.414Z,88.01
2023-05-09T07:50:03.008Z,88.61
2023-05-09T07:51:03.343Z,87.77
2023-05-09T07:52:02.988Z,87.66
2023-05-09T07:53:03.182Z,88.07
2023-05-09T07:54:03.294Z,88.12
2023-05-09T07:55:02.632Z,87.12
2023-05-09T07:56:02.703Z,86.22
2023-05-09T07:57:02.013Z,85.72
2023-05-09T07:58:02.557Z,86.12
2023-05-09T07:59:02.617Z,85.72
2023-05-09T08:00:02.675Z,85.02
2023-05-09T08:01:02.120Z,85.38
2023-05-09T08:02:02.287Z,84.41
2023-05-09T08:03:02.896Z,85.02
2023-05-09T08:04:02.441Z,85.72
2023-05-09T08:05:02.273Z,85.97
2023-05-09T08:06:01.696Z,85.58
2023-05-09T08:07:01.974Z,85.47
2023-05-09T08:08:02.294Z,85.38
2023-05-09T08:09:02.019Z,84.97
2023-05-09T08:10:02.353Z,85.08
2023-05-09T08:11:02.523Z,84.67
2023-05-09T08:12:02.874Z,84.27
2023-05-09T08:13:02.933Z,84.93
2023-05-09T08:14:02.674Z,84.43
2023-05-09T08:15:02.075Z,84.74
2023-05-09T08:16:02.289Z,84.13
2023-05-09T08:17:02.387Z,84.23
2023-05-09T08:18:02.159Z,84.29
2023-05-09T08:19:02.123Z,83.93
2023-05-09T08:20:02.391Z,84.59
2023-05-09T08:21:02.957Z,83.89
2023-05-09T08:22:02.604Z,84.19
2023-05-09T08:23:02.883Z,83.39
2023-05-09T08:24:02.768Z,83.39
2023-05-09T08:25:02.137Z,83.79
2023-05-09T08:26:02.648Z,83.49
2023-05-09T08:27:02.654Z,82.85
2023-05-09T08:28:02.325Z,83.09
2023-05-09T08:29:02.452Z,83.45
2023-05-09T08:30:01.811Z,82.45
2023-05-09T08:31:01.940Z,82.05
2023-05-09T08:32:02.091Z,82.55
2023-05-09T08:33:01.673Z,81.55
2023-05-09T08:34:02.094Z,80.04
2023-05-09T08:35:02.351Z,80.35
2023-05-09T08:36:02.553Z,80.94
2023-05-09T08:37:02.484Z,81.95
2023-05-09T08:38:02.749Z,80.94
2023-05-09T08:39:02.752Z,78.34
2023-05-09T08:40:02.281Z,79.74
2023-05-09T08:41:02.460Z,80.65
2023-05-09T08:42:02.583Z,79.64
2023-05-09T08:43:02.504Z,78.74
2023-05-09T08:44:01.953Z,78.74
2023-05-09T08:45:02.234Z,79.91
2023-05-09T08:46:02.526Z,79.21
2023-05-09T08:47:02.744Z,79.21
2023-05-09T08:48:02.823Z,78.27
2023-05-09T08:49:02.696Z,77.26
2023-05-09T08:50:02.668Z,77.67
2023-05-09T08:51:02.920Z,76.37
2023-05-09T08:52:03.237Z,76.26
2023-05-09T08:53:03.341Z,76.67
2023-05-09T08:54:02.632Z,76.67
2023-05-09T08:55:02.346Z,76.97
2023-05-09T08:56:02.339Z,76.17
2023-05-09T08:57:02.591Z,76.46
2023-05-09T08:58:02.562Z,77.17
2023-05-09T08:59:02.167Z,76.03
2023-05-09T09:00:02.735Z,75.13
2023-05-09T09:01:02.412Z,75.76
2023-05-09T09:02:02.637Z,75.16
2023-05-09T09:03:02.756Z,75.96
2023-05-09T09:04:02.820Z,75.46
2023-05-09T09:05:02.590Z,75.56
2023-05-09T09:06:02.715Z,75.46
2023-05-09T09:07:02.866Z,76.10
2023-05-09T09:08:02.361Z,76.80
2023-05-09T09:09:02.550Z,76.30
2023-05-09T09:10:01.733Z,76.00
2023-05-09T09:11:01.915Z,76.46
2023-05-09T09:12:01.939Z,76.06
2023-05-09T09:13:02.201Z,76.17
2023-05-09T09:14:01.728Z,75.56
2023-05-09T09:15:02.006Z,76.26
2023-05-09T09:16:02.279Z,76.97
2023-05-09T09:17:01.754Z,75.67
2023-05-09T09:18:02.034Z,75.46
2023-05-09T09:19:01.978Z,76.56
2023-05-09T09:20:02.226Z,76.63
2023-05-09T09:21:02.214Z,75.23
2023-05-09T09:22:02.400Z,75.33
2023-05-09T09:23:02.209Z,76.03
2023-05-09T09:24:02.454Z,75.33
2023-05-09T09:25:02.891Z,75.33
2023-05-09T09:26:02.995Z,74.63
2023-05-09T09:27:02.701Z,74.43
2023-05-09T09:28:02.955Z,75.93
2023-05-09T09:29:02.963Z,76.03
2023-05-09T09:30:02.237Z,75.93
2023-05-09T09:31:02.497Z,75.19
2023-05-09T09:32:02.043Z,75.59
2023-05-09T09:33:02.492Z,74.99
2023-05-09T09:34:02.605Z,75.09
2023-05-09T09:35:02.629Z,75.09
2023-05-09T09:36:02.898Z,74.99
2023-05-09T09:37:02.456Z,74.39
2023-05-09T09:38:02.837Z,73.69
2023-05-09T09:39:02.617Z,73.89
2023-05-09T09:40:03.003Z,72.79
2023-05-09T09:41:02.933Z,72.79
2023-05-09T09:42:02.942Z,73.49
2023-05-09T09:43:02.833Z,73.39
2023-05-09T09:44:03.214Z,73.09
2023-05-09T09:45:02.369Z,73.19
2023-05-09T09:46:02.070Z,73.59
2023-05-09T09:47:02.397Z,73.59
2023-05-09T09:48:02.615Z,72.99
2023-05-09T09:49:02.009Z,73.59
2023-05-09T09:50:02.972Z,73.29
2023-05-09T09:51:02.624Z,73.09
2023-05-09T09:52:02.925Z,73.29
2023-05-09T09:53:03.135Z,72.49
2023-05-09T09:54:03.167Z,73.29
2023-05-09T09:55:02.171Z,73.79
2023-05-09T09:56:01.927Z,74.09
2023-05-09T09:57:02.446Z,72.39
2023-05-09T09:58:01.952Z,73.29
2023-05-09T09:59:02.197Z,73.59
2023-05-09T10:00:02.503Z,74.99
2023-05-09T10:01:02.701Z,73.96
2023-05-09T10:02:05.831Z,74.46
2023-05-09T10:03:02.440Z,74.32
2023-05-09T10:04:02.511Z,75.42
2023-05-09T10:05:03.479Z,74.58
2023-05-09T10:06:03.636Z,73.52
2023-05-09T10:07:03.415Z,74.08
2023-05-09T10:08:03.569Z,73.79
2023-05-09T10:09:03.100Z,72.32
2023-05-09T10:10:02.976Z,73.02
2023-05-09T10:11:03.225Z,73.82
2023-05-09T10:12:03.239Z,73.58
2023-05-09T10:13:03.275Z,73.09
2023-05-09T10:14:03.176Z,72.78
2023-05-09T10:15:03.185Z,73.58
2023-05-09T10:16:03.467Z,73.95
2023-05-09T10:17:02.818Z,73.55
2023-05-09T10:18:03.296Z,72.16
2023-05-09T10:19:02.835Z,72.05
2023-05-09T10:20:02.870Z,72.16
2023-05-09T10:21:02.698Z,72.35
2023-05-09T10:22:02.894Z,73.35
2023-05-09T10:23:03.001Z,72.65
2023-05-09T10:24:02.927Z,72.29
2023-05-09T10:25:03.117Z,73.19
2023-05-09T10:26:03.166Z,72.72
2023-05-09T10:27:02.989Z,72.52
2023-05-09T10:28:03.267Z,73.49
2023-05-09T10:29:03.270Z,72.39
2023-05-09T10:30:03.042Z,72.89
2023-05-09T10:31:03.272Z,71.19
2023-05-09T10:32:03.400Z,71.86
2023-05-09T10:33:03.470Z,72.16
2023-05-09T10:34:03.383Z,71.82
2023-05-09T10:35:03.632Z,71.75
2023-05-09T10:36:03.231Z,70.46
2023-05-09T10:37:03.614Z,70.86
2023-05-09T10:38:03.411Z,70.76
2023-05-09T10:39:03.633Z,68.86
2023-05-09T10:40:03.740Z,69.36
2023-05-09T10:41:03.974Z,68.76
2023-05-09T10:42:03.967Z,69.20
2023-05-09T10:43:03.965Z,70.09
2023-05-09T10:44:03.981Z,70.09
2023-05-09T10:45:03.241Z,69.06
2023-05-09T10:46:03.449Z,69.26
2023-05-09T10:47:02.855Z,67.36
2023-05-09T10:48:03.287Z,67.96
2023-05-09T10:49:03.337Z,68.66
2023-05-09T10:50:03.280Z,68.53
2023-05-09T10:51:02.845Z,67.33
2023-05-09T10:52:03.000Z,67.23
2023-05-09T10:53:03.243Z,68.03
2023-05-09T10:54:03.226Z,68.23
2023-05-09T10:55:03.393Z,67.30
2023-05-09T10:56:03.530Z,67.40
2023-05-09T10:57:03.454Z,66.80
2023-05-09T10:58:03.600Z,66.43
2023-05-09T10:59:03.466Z,67.43
2023-05-09T11:00:03.747Z,67.33
2023-05-09T11:01:03.248Z,68.03
2023-05-09T11:02:03.618Z,67.83
2023-05-09T11:03:03.925Z,67.60
2023-05-09T11:04:03.314Z,67.10
2023-05-09T11:05:02.376Z,66.30
2023-05-09T11:06:02.224Z,66.83
2023-05-09T11:07:02.180Z,67.43
2023-05-09T11:08:02.360Z,68.10
2023-05-09T11:09:01.831Z,68.00
2023-05-09T11:10:02.833Z,68.99
2023-05-09T11:11:02.302Z,69.56
2023-05-09T11:12:02.393Z,69.62
2023-05-09T11:13:02.556Z,68.70
2023-05-09T11:14:02.321Z,67.20
2023-05-09T11:15:02.350Z,66.20
2023-05-09T11:16:02.361Z,66.01
2023-05-09T11:17:02.288Z,65.01
2023-05-09T11:18:02.289Z,65.11
2023-05-09T11:19:02.299Z,65.41
2023-05-09T11:20:02.347Z,63.82
2023-05-09T11:21:02.568Z,64.45
2023-05-09T11:22:02.708Z,65.61
2023-05-09T11:23:02.958Z,66.20
2023-05-09T11:24:02.967Z,65.38
2023-05-09T11:25:02.501Z,64.58
2023-05-09T11:26:02.195Z,63.49
2023-05-09T11:27:02.298Z,64.81
2023-05-09T11:28:02.375Z,64.51
2023-05-09T11:29:02.454Z,65.78
2023-05-09T11:30:02.018Z,66.17
2023-05-09T11:31:01.990Z,66.44
2023-05-09T11:32:02.304Z,65.75
2023-05-09T11:33:02.425Z,66.35
2023-05-09T11:34:02.209Z,67.14
2023-05-09T11:35:02.071Z,67.40
2023-05-09T11:36:02.303Z,67.11
2023-05-09T11:37:02.572Z,66.97
2023-05-09T11:38:02.682Z,66.67
2023-05-09T11:39:02.683Z,66.78
2023-05-09T11:40:02.662Z,67.24
2023-05-09T11:41:02.937Z,66.15
2023-05-09T11:42:03.310Z,65.55
2023-05-09T11:43:03.146Z,65.02
2023-05-09T11:44:02.812Z,65.42
2023-05-09T11:45:02.012Z,65.62
2023-05-09T11:46:02.652Z,64.23
2023-05-09T11:47:02.112Z,64.83
2023-05-09T11:48:02.273Z,64.53
2023-05-09T11:49:02.570Z,64.62
2023-05-09T11:50:02.608Z,63.96
2023-05-09T11:51:03.003Z,65.58
2023-05-09T11:52:03.194Z,64.42
2023-05-09T11:53:03.110Z,65.61
2023-05-09T11:54:02.968Z,66.51
2023-05-09T11:55:02.300Z,65.88
2023-05-09T11:56:02.583Z,66.48
2023-05-09T11:57:02.806Z,66.28
2023-05-09T11:58:02.939Z,65.98
2023-05-09T11:59:02.183Z,66.28
2023-05-09T12:00:02.436Z,66.48
2023-05-09T12:01:02.818Z,65.39
2023-05-09T12:02:02.435Z,66.58
2023-05-09T12:03:02.694Z,65.28
2023-05-09T12:04:03.139Z,65.22
2023-05-09T12:05:02.529Z,65.31
2023-05-09T12:06:02.658Z,66.11
2023-05-09T12:07:02.791Z,66.61
2023-05-09T12:08:03.060Z,67.11
2023-05-09T12:09:03.056Z,65.98
2023-05-09T12:10:03.015Z,65.52
2023-05-09T12:11:03.207Z,66.11
2023-05-09T12:12:03.570Z,66.44
2023-05-09T12:13:03.623Z,66.71
2023-05-09T12:14:03.177Z,67.00
2023-05-09T12:15:03.287Z,66.08
2023-05-09T12:16:03.414Z,65.58
2023-05-09T12:17:03.576Z,66.28
2023-05-09T12:18:03.713Z,65.98
2023-05-09T12:19:03.819Z,65.22
2023-05-09T12:20:02.815Z,65.81
2023-05-09T12:21:02.871Z,65.81
2023-05-09T12:22:03.048Z,65.72
2023-05-09T12:23:03.322Z,66.81
2023-05-09T12:24:02.977Z,67.21
2023-05-09T12:25:03.222Z,65.91
2023-05-09T12:26:03.205Z,67.11
2023-05-09T12:27:03.703Z,66.01
2023-05-09T12:28:03.290Z,67.00
2023-05-09T12:29:03.309Z,67.40
2023-05-09T12:30:02.608Z,67.40
2023-05-09T12:31:02.665Z,66.88
2023-05-09T12:32:02.639Z,65.98
2023-05-09T12:33:02.924Z,65.88
2023-05-09T12:34:02.944Z,66.21
2023-05-09T12:35:03.143Z,66.41
2023-05-09T12:36:03.106Z,66.81
2023-05-09T12:37:03.360Z,66.51
2023-05-09T12:38:03.612Z,67.18
2023-05-09T12:39:03.533Z,66.97
2023-05-09T12:40:02.733Z,67.37
2023-05-09T12:41:03.796Z,67.67
2023-05-09T12:42:03.090Z,66.67
2023-05-09T12:43:03.146Z,66.78
2023-05-09T12:44:03.174Z,65.88
2023-05-09T12:45:02.873Z,65.28
2023-05-09T12:46:03.105Z,64.82
2023-05-09T12:47:02.619Z,65.42
2023-05-09T12:48:02.751Z,64.82
2023-05-09T12:49:03.244Z,65.52
2023-05-09T12:50:03.352Z,64.62
2023-05-09T12:51:03.720Z,64.92
2023-05-09T12:52:05.023Z,66.01
2023-05-09T12:53:03.824Z,66.11